sensor_id;sensor_type;location;lat;lon;timestamp;temperature;humidity
1594;DHT22;790;47.000;16.084;2024-02-26T00:01:27;5.00;99.90
1594;DHT22;790;47.000;16.084;2024-02-26T00:12:35;4.80;99.90
1594;DHT22;790;47.000;16.084;2024-02-26T00:18:59;4.70;99.90
1594;DHT22;790;47.000;16.084;2024-02-26T00:25:22;4.60;99.90
1594;DHT22;790;47.000;16.084;2024-02-26T00:31:45;4.70;99.90
1594;DHT22;790;47.000;16.084;2024-02-26T00:38:07;4.70;99.90
1594;DHT22;790;47.000;16.084;2024-02-26T00:44:29;4.60;99.90
1594;DHT22;790;47.000;16.084;2024-02-26T00:50:52;4.50;99.90
1594;DHT22;790;47.000;16.084;2024-02-26T00:57:15;4.40;99.90
1594;DHT22;790;47.000;16.084;2024-02-26T01:03:37;4.20;99.90
1594;DHT22;790;47.000;16.084;2024-02-26T01:14:44;4.20;99.90
1594;DHT22;790;47.000;16.084;2024-02-26T01:21:07;4.10;99.90
1594;DHT22;790;47.000;16.084;2024-02-26T01:27:30;4.10;99.90
1594;DHT22;790;47.000;16.084;2024-02-26T01:33:53;4.30;99.90
1594;DHT22;790;47.000;16.084;2024-02-26T01:40:16;4.10;99.90
1594;DHT22;790;47.000;16.084;2024-02-26T01:46:40;4.10;99.90
1594;DHT22;790;47.000;16.084;2024-02-26T01:53:03;4.00;99.90
1594;DHT22;790;47.000;16.084;2024-02-26T01:59:26;3.90;99.90
1594;DHT22;790;47.000;16.084;2024-02-26T02:05:49;3.90;99.90
1594;DHT22;790;47.000;16.084;2024-02-26T02:16:57;3.80;99.90
1594;DHT22;790;47.000;16.084;2024-02-26T02:23:21;3.60;99.90
1594;DHT22;790;47.000;16.084;2024-02-26T02:29:44;3.50;99.90
1594;DHT22;790;47.000;16.084;2024-02-26T02:36:06;3.50;99.90
1594;DHT22;790;47.000;16.084;2024-02-26T02:42:31;3.50;99.90
1594;DHT22;790;47.000;16.084;2024-02-26T02:48:54;3.50;99.90
1594;DHT22;790;47.000;16.084;2024-02-26T02:55:16;3.40;99.90
1594;DHT22;790;47.000;16.084;2024-02-26T03:01:40;3.40;99.90
1594;DHT22;790;47.000;16.084;2024-02-26T03:08:03;3.40;99.90
1594;DHT22;790;47.000;16.084;2024-02-26T03:19:14;3.30;99.90
1594;DHT22;790;47.000;16.084;2024-02-26T03:25:36;3.30;99.90
1594;DHT22;790;47.000;16.084;2024-02-26T03:31:58;3.40;99.90
1594;DHT22;790;47.000;16.084;2024-02-26T03:38:21;3.30;99.90
1594;DHT22;790;47.000;16.084;2024-02-26T03:44:44;3.40;99.90
1594;DHT22;790;47.000;16.084;2024-02-26T03:51:06;3.60;99.90
1594;DHT22;790;47.000;16.084;2024-02-26T03:57:31;3.50;99.90
1594;DHT22;790;47.000;16.084;2024-02-26T04:03:54;3.40;99.90
1594;DHT22;790;47.000;16.084;2024-02-26T04:10:16;3.30;99.90
1594;DHT22;790;47.000;16.084;2024-02-26T04:21:23;3.10;99.90
1594;DHT22;790;47.000;16.084;2024-02-26T04:27:46;2.80;99.90
1594;DHT22;790;47.000;16.084;2024-02-26T04:34:08;2.90;99.90
1594;DHT22;790;47.000;16.084;2024-02-26T04:40:31;2.90;99.90
1594;DHT22;790;47.000;16.084;2024-02-26T04:46:54;3.00;99.90
1594;DHT22;790;47.000;16.084;2024-02-26T04:53:36;2.80;99.90
1594;DHT22;790;47.000;16.084;2024-02-26T05:00:00;2.80;99.90
1594;DHT22;790;47.000;16.084;2024-02-26T05:06:23;2.60;99.90
1594;DHT22;790;47.000;16.084;2024-02-26T05:12:45;2.30;99.90
1594;DHT22;790;47.000;16.084;2024-02-26T05:23:43;2.20;99.90
1594;DHT22;790;47.000;16.084;2024-02-26T05:30:06;2.40;99.90
1594;DHT22;790;47.000;16.084;2024-02-26T05:36:29;2.50;99.90
1594;DHT22;790;47.000;16.084;2024-02-26T05:42:55;2.40;99.90
1594;DHT22;790;47.000;16.084;2024-02-26T05:49:16;2.30;99.90
1594;DHT22;790;47.000;16.084;2024-02-26T05:55:38;2.30;99.90
1594;DHT22;790;47.000;16.084;2024-02-26T06:02:01;2.20;99.90
1594;DHT22;790;47.000;16.084;2024-02-26T06:08:24;2.10;99.90
1594;DHT22;790;47.000;16.084;2024-02-26T06:14:47;2.00;99.90
1594;DHT22;790;47.000;16.084;2024-02-26T06:25:45;1.90;99.90
1594;DHT22;790;47.000;16.084;2024-02-26T06:32:08;2.00;99.90
1594;DHT22;790;47.000;16.084;2024-02-26T06:38:30;2.10;99.90
1594;DHT22;790;47.000;16.084;2024-02-26T06:44:53;2.20;99.90
1594;DHT22;790;47.000;16.084;2024-02-26T06:51:15;2.40;99.90
1594;DHT22;790;47.000;16.084;2024-02-26T06:57:37;2.60;99.90
1594;DHT22;790;47.000;16.084;2024-02-26T07:04:01;2.70;99.90
1594;DHT22;790;47.000;16.084;2024-02-26T07:10:23;2.80;99.90
1594;DHT22;790;47.000;16.084;2024-02-26T07:16:45;3.00;99.90
1594;DHT22;790;47.000;16.084;2024-02-26T07:27:33;3.20;99.90
1594;DHT22;790;47.000;16.084;2024-02-26T07:33:55;3.40;99.90
1594;DHT22;790;47.000;16.084;2024-02-26T07:40:17;3.50;99.90
1594;DHT22;790;47.000;16.084;2024-02-26T07:46:40;3.70;99.90
1594;DHT22;790;47.000;16.084;2024-02-26T07:53:03;4.00;99.90
1594;DHT22;790;47.000;16.084;2024-02-26T07:59:25;4.10;99.90
1594;DHT22;790;47.000;16.084;2024-02-26T08:05:49;4.40;99.90
1594;DHT22;790;47.000;16.084;2024-02-26T08:12:11;4.80;99.90
1594;DHT22;790;47.000;16.084;2024-02-26T08:18:44;5.20;99.90
1594;DHT22;790;47.000;16.084;2024-02-26T08:29:31;5.90;99.90
1594;DHT22;790;47.000;16.084;2024-02-26T08:35:53;6.50;99.90
1594;DHT22;790;47.000;16.084;2024-02-26T08:42:15;7.10;99.90
1594;DHT22;790;47.000;16.084;2024-02-26T08:48:39;7.50;99.90
1594;DHT22;790;47.000;16.084;2024-02-26T08:55:01;7.80;99.90
1594;DHT22;790;47.000;16.084;2024-02-26T09:01:24;8.00;99.90
1594;DHT22;790;47.000;16.084;2024-02-26T09:07:48;8.50;99.90
1594;DHT22;790;47.000;16.084;2024-02-26T09:14:12;8.90;99.90
1594;DHT22;790;47.000;16.084;2024-02-26T09:20:35;9.10;99.90
1594;DHT22;790;47.000;16.084;2024-02-26T09:31:23;9.60;99.90
1594;DHT22;790;47.000;16.084;2024-02-26T09:37:45;9.70;99.90
1594;DHT22;790;47.000;16.084;2024-02-26T09:44:10;9.80;99.90
1594;DHT22;790;47.000;16.084;2024-02-26T09:50:34;10.10;99.90
1594;DHT22;790;47.000;16.084;2024-02-26T09:56:59;10.30;99.90
1594;DHT22;790;47.000;16.084;2024-02-26T10:03:22;10.60;99.90
1594;DHT22;790;47.000;16.084;2024-02-26T10:09:47;11.00;99.90
1594;DHT22;790;47.000;16.084;2024-02-26T10:16:09;11.10;99.90
1594;DHT22;790;47.000;16.084;2024-02-26T10:22:32;11.30;99.90
1594;DHT22;790;47.000;16.084;2024-02-26T10:33:21;11.70;99.90
1594;DHT22;790;47.000;16.084;2024-02-26T10:39:47;11.70;99.90
1594;DHT22;790;47.000;16.084;2024-02-26T10:46:09;12.10;99.90
1594;DHT22;790;47.000;16.084;2024-02-26T10:52:34;12.20;99.90
1594;DHT22;790;47.000;16.084;2024-02-26T10:58:57;12.30;99.90
1594;DHT22;790;47.000;16.084;2024-02-26T11:05:19;12.40;99.90
1594;DHT22;790;47.000;16.084;2024-02-26T11:11:44;12.30;99.90
1594;DHT22;790;47.000;16.084;2024-02-26T11:18:07;12.50;99.90
1594;DHT22;790;47.000;16.084;2024-02-26T11:24:30;12.60;99.90
1594;DHT22;790;47.000;16.084;2024-02-26T11:35:19;13.00;99.90
1594;DHT22;790;47.000;16.084;2024-02-26T11:41:41;12.90;99.90
1594;DHT22;790;47.000;16.084;2024-02-26T11:48:03;13.10;99.90
1594;DHT22;790;47.000;16.084;2024-02-26T11:54:47;13.20;99.90
1594;DHT22;790;47.000;16.084;2024-02-26T12:01:40;13.30;99.90
1594;DHT22;790;47.000;16.084;2024-02-26T12:08:06;13.50;99.90
1594;DHT22;790;47.000;16.084;2024-02-26T12:14:32;13.50;99.90
1594;DHT22;790;47.000;16.084;2024-02-26T12:20:59;13.50;99.90
1594;DHT22;790;47.000;16.084;2024-02-26T12:27:23;13.40;99.90
1594;DHT22;790;47.000;16.084;2024-02-26T12:38:42;13.30;99.90
1594;DHT22;790;47.000;16.084;2024-02-26T12:45:05;13.60;99.90
1594;DHT22;790;47.000;16.084;2024-02-26T12:51:30;13.80;99.90
1594;DHT22;790;47.000;16.084;2024-02-26T12:57:54;13.70;99.90
1594;DHT22;790;47.000;16.084;2024-02-26T13:04:16;13.70;99.90
1594;DHT22;790;47.000;16.084;2024-02-26T13:10:38;13.70;99.90
1594;DHT22;790;47.000;16.084;2024-02-26T13:17:03;13.90;99.90
1594;DHT22;790;47.000;16.084;2024-02-26T13:23:26;13.90;99.90
1594;DHT22;790;47.000;16.084;2024-02-26T13:29:48;13.80;99.90
1594;DHT22;790;47.000;16.084;2024-02-26T13:41:06;13.80;99.90
1594;DHT22;790;47.000;16.084;2024-02-26T13:47:29;13.80;99.90
1594;DHT22;790;47.000;16.084;2024-02-26T13:53:52;14.10;99.90
1594;DHT22;790;47.000;16.084;2024-02-26T14:00:17;14.20;99.90
1594;DHT22;790;47.000;16.084;2024-02-26T14:06:40;14.00;99.90
1594;DHT22;790;47.000;16.084;2024-02-26T14:13:02;14.00;99.90
1594;DHT22;790;47.000;16.084;2024-02-26T14:19:27;13.80;99.90
1594;DHT22;790;47.000;16.084;2024-02-26T14:25:48;13.80;99.90
1594;DHT22;790;47.000;16.084;2024-02-26T14:32:10;13.80;99.90
1594;DHT22;790;47.000;16.084;2024-02-26T14:43:08;13.60;99.90
1594;DHT22;790;47.000;16.084;2024-02-26T14:49:31;13.50;99.90
1594;DHT22;790;47.000;16.084;2024-02-26T14:55:54;13.30;99.90
1594;DHT22;790;47.000;16.084;2024-02-26T15:02:18;13.30;99.90
1594;DHT22;790;47.000;16.084;2024-02-26T15:08:40;13.20;99.90
1594;DHT22;790;47.000;16.084;2024-02-26T15:15:02;13.20;99.90
1594;DHT22;790;47.000;16.084;2024-02-26T15:21:26;13.20;99.90
1594;DHT22;790;47.000;16.084;2024-02-26T15:27:58;13.10;99.90
1594;DHT22;790;47.000;16.084;2024-02-26T15:34:20;13.00;99.90
1594;DHT22;790;47.000;16.084;2024-02-26T15:45:18;12.90;99.90
1594;DHT22;790;47.000;16.084;2024-02-26T15:51:41;12.70;99.90
1594;DHT22;790;47.000;16.084;2024-02-26T15:58:07;12.60;99.90
1594;DHT22;790;47.000;16.084;2024-02-26T16:04:31;12.40;99.90
1594;DHT22;790;47.000;16.084;2024-02-26T16:10:54;12.40;99.90
1594;DHT22;790;47.000;16.084;2024-02-26T16:17:20;12.30;99.90
1594;DHT22;790;47.000;16.084;2024-02-26T16:23:46;12.20;99.90
1594;DHT22;790;47.000;16.084;2024-02-26T16:30:09;12.00;99.90
1594;DHT22;790;47.000;16.084;2024-02-26T16:36:31;11.90;99.90
1594;DHT22;790;47.000;16.084;2024-02-26T16:47:39;11.70;99.90
1594;DHT22;790;47.000;16.084;2024-02-26T16:54:03;11.80;99.90
1594;DHT22;790;47.000;16.084;2024-02-26T17:00:24;11.80;99.90
1594;DHT22;790;47.000;16.084;2024-02-26T17:06:58;11.80;99.90
1594;DHT22;790;47.000;16.084;2024-02-26T17:13:20;11.80;99.90
1594;DHT22;790;47.000;16.084;2024-02-26T17:19:43;11.70;99.90
1594;DHT22;790;47.000;16.084;2024-02-26T17:26:08;11.60;99.90
1594;DHT22;790;47.000;16.084;2024-02-26T17:32:31;11.60;99.90
1594;DHT22;790;47.000;16.084;2024-02-26T17:38:53;11.50;99.90
1594;DHT22;790;47.000;16.084;2024-02-26T17:50:11;11.60;99.90
1594;DHT22;790;47.000;16.084;2024-02-26T17:56:34;11.50;99.90
1594;DHT22;790;47.000;16.084;2024-02-26T18:02:56;11.40;99.90
1594;DHT22;790;47.000;16.084;2024-02-26T18:09:20;11.40;99.90
1594;DHT22;790;47.000;16.084;2024-02-26T18:15:42;11.40;99.90
1594;DHT22;790;47.000;16.084;2024-02-26T18:22:04;11.30;99.90
1594;DHT22;790;47.000;16.084;2024-02-26T18:28:28;11.20;99.90
1594;DHT22;790;47.000;16.084;2024-02-26T18:34:51;11.20;99.90
1594;DHT22;790;47.000;16.084;2024-02-26T18:41:20;11.20;99.90
1594;DHT22;790;47.000;16.084;2024-02-26T18:52:39;11.00;99.90
1594;DHT22;790;47.000;16.084;2024-02-26T18:59:01;10.90;99.90
1594;DHT22;790;47.000;16.084;2024-02-26T19:05:23;10.80;99.90
1594;DHT22;790;47.000;16.084;2024-02-26T19:11:48;10.90;99.90
1594;DHT22;790;47.000;16.084;2024-02-26T19:18:11;10.90;99.90
1594;DHT22;790;47.000;16.084;2024-02-26T19:24:34;11.00;99.90
1594;DHT22;790;47.000;16.084;2024-02-26T19:30:58;11.10;99.90
1594;DHT22;790;47.000;16.084;2024-02-26T19:37:20;11.00;99.90
1594;DHT22;790;47.000;16.084;2024-02-26T19:43:43;11.10;99.90
1594;DHT22;790;47.000;16.084;2024-02-26T19:55:02;11.10;99.90
1594;DHT22;790;47.000;16.084;2024-02-26T20:01:24;11.00;99.90
1594;DHT22;790;47.000;16.084;2024-02-26T20:07:47;10.80;99.90
1594;DHT22;790;47.000;16.084;2024-02-26T20:14:10;10.60;99.90
1594;DHT22;790;47.000;16.084;2024-02-26T20:20:32;10.50;99.90
1594;DHT22;790;47.000;16.084;2024-02-26T20:26:55;10.30;99.90
1594;DHT22;790;47.000;16.084;2024-02-26T20:33:18;10.10;99.90
1594;DHT22;790;47.000;16.084;2024-02-26T20:39:40;9.90;99.90
1594;DHT22;790;47.000;16.084;2024-02-26T20:46:02;9.60;99.90
1594;DHT22;790;47.000;16.084;2024-02-26T20:57:11;9.60;99.90
1594;DHT22;790;47.000;16.084;2024-02-26T21:03:33;9.40;99.90
1594;DHT22;790;47.000;16.084;2024-02-26T21:09:55;9.00;99.90
1594;DHT22;790;47.000;16.084;2024-02-26T21:16:19;8.70;99.90
1594;DHT22;790;47.000;16.084;2024-02-26T21:22:41;8.60;99.90
1594;DHT22;790;47.000;16.084;2024-02-26T21:29:05;8.50;99.90
1594;DHT22;790;47.000;16.084;2024-02-26T21:35:29;8.20;99.90
1594;DHT22;790;47.000;16.084;2024-02-26T21:41:51;8.20;99.90
1594;DHT22;790;47.000;16.084;2024-02-26T21:48:14;8.00;99.90
1594;DHT22;790;47.000;16.084;2024-02-26T21:59:52;7.70;99.90
1594;DHT22;790;47.000;16.084;2024-02-26T22:06:15;7.60;99.90
1594;DHT22;790;47.000;16.084;2024-02-26T22:12:37;7.40;99.90
1594;DHT22;790;47.000;16.084;2024-02-26T22:19:00;7.30;99.90
1594;DHT22;790;47.000;16.084;2024-02-26T22:25:24;7.20;99.90
1594;DHT22;790;47.000;16.084;2024-02-26T22:31:47;7.10;99.90
1594;DHT22;790;47.000;16.084;2024-02-26T22:38:16;7.10;99.90
1594;DHT22;790;47.000;16.084;2024-02-26T22:44:38;7.00;99.90
1594;DHT22;790;47.000;16.084;2024-02-26T22:51:01;7.00;99.90
1594;DHT22;790;47.000;16.084;2024-02-26T23:02:20;6.90;99.90
1594;DHT22;790;47.000;16.084;2024-02-26T23:08:43;6.70;99.90
1594;DHT22;790;47.000;16.084;2024-02-26T23:15:05;6.60;99.90
1594;DHT22;790;47.000;16.084;2024-02-26T23:21:30;6.50;99.90
1594;DHT22;790;47.000;16.084;2024-02-26T23:27:52;6.60;99.90
1594;DHT22;790;47.000;16.084;2024-02-26T23:34:14;6.30;99.90
1594;DHT22;790;47.000;16.084;2024-02-26T23:40:39;6.00;99.90
1594;DHT22;790;47.000;16.084;2024-02-26T23:47:01;5.90;99.90
1594;DHT22;790;47.000;16.084;2024-02-26T23:53:22;6.10;99.90
